Current Conditions
Cielo Sereno
Condizioni




Pressure
1015.92 (mb) - 30 (inHG)
Visibility

10.0 (km) - 6.2 (miles)
   Temperature
21  °C
70°F
17  °C
Dewpoint
78  %
 Humidity
   Wind Speed
8  km/h
4  kts
5  mph
2.2  m/s
   Wind Direction
 100°
Due East
   Airport Data
LIRQ
Location Peretola Airport 29.50 km (18.33 mi)
Metar :LIRQ 200050Z 10004KT CAVOK 21/17 Q1016
Sun 20th June 01:50 am
   Raw Metar Info
Raw METAR is the most common format in the world for the transmission of observational weather data. It is highly standardized through the International Civil Aviation Organization (ICAO), which allows it to be understood throughout most of the world.
   API Info
Data Provided by
https://www.checkwx.com/weather/LIRQ
   © Info
CSS/SVG/PHP scripts were developed by weather34.com for use in the weather34 template © 2015-2021

Guide Info provided by Metar-Wikipedia